Impacts TAF Board
For situational awareness. Not to be used for flight planning purposes.
IDs:

KSTL - St Louis/Lambert Int, MO, US

Issued at 2331 UTC 09 Dec 2022
Updated at 0156 UTC 10 Dec 2022
Potential Impact None Slight Moderate High
Time0151Z 10/02Z 10/03Z 10/04Z 10/05Z 10/06Z 10/07Z 10/08Z 10/09Z 10/10Z 10/11Z 10/12Z 10/13Z 10/14Z>>
Type OBS PRVL PRVL PRVL PRVL PRVL PRVL PRVL PRVL PRVL PRVL PRVL PRVL PRVL
VIS 10 >6 >6 >6 >6 >6 >6 >6 >6 >6 >6 >6 >6 >6
CIG 23 15 15 15 15 15 15 15 15 15 15 15 18 18
Cover OVC OVC OVC OVC OVC OVC OVC OVC OVC OVC OVC OVC OVC OVC
FltCat MVFR MVFR MVFR MVFR MVFR MVFR MVFR MVFR MVFR MVFR MVFR MVFR MVFR MVFR
WX -- -- -- -- -- -- -- -- -- -- -- -- VCSH VCSH
WDir 310 310 310 VRB VRB VRB VRB VRB VRB VRB VRB VRB VRB VRB
WSpd 5 7 7 3 3 3 3 3 3 3 3 3 4 4
WGst -- -- -- -- -- -- -- -- -- -- -- -- -- --
WSHgt -- -- -- -- -- -- -- -- -- -- -- -- -- --
WSDir -- -- -- -- -- -- -- -- -- -- -- -- -- --
WSSpd -- -- -- -- -- -- -- -- -- -- -- -- -- --
Raw TAF
KSTL 092331Z 1000/1106 31007KT P6SM OVC015
  FM100400 VRB03KT P6SM OVC015
  FM101300 VRB04KT P6SM VCSH OVC018
  FM110000 00000KT P6SM OVC040


Raw METAR
KSTL 100151Z 31005KT 10SM OVC023 06/01 A3019 RMK AO2 SLP226 T00560006
KSTL 100051Z 29009KT 10SM OVC024 06/01 A3019 RMK AO2 SLP225 T00560006
KSTL 092351Z 29006KT 10SM OVC023 06/01 A3018 RMK AO2 SLP222 T00560006 10128 20050 51018
KSTL 092251Z 29009KT 10SM BKN017 BKN250 05/01 A3016 RMK AO2 SLP218 T00500006

METAR Board
Radar Display
Forecast Discussion
For situational awareness. Not to be used for flight planning purposes.